Terminal Aerodrome Forecast
Issued by NWS Rapid City, SD

Home | Current Version | Previous Version | Graphics & Text | Print | Product List | Glossary On
Versions: 1 2 3 4 5 6 7 8 9 10 11 12 13 14 15 16 17 18 19 20 21
817
FTUS43 KUNR 191720
TAFRAP
TAF
KRAP 191720Z 1918/2018 18012G20KT P6SM SCT250
     FM200100 VRB06KT P6SM OVC080
     FM200600 33016KT P6SM -SHRA OVC050
     FM201100 30009KT P6SM SCT050=

USA.gov is the U.S. government's official web portal to all federal, state and local government web resources and services.